sensor_id;sensor_type;location;lat;lon;timestamp;pressure;altitude;pressure_sealevel;temperature;humidity
50484;BME280;36409;52.168;20.878;2023-02-17T00:01:51;100789.06;;;2.36;78.42
50484;BME280;36409;52.168;20.878;2023-02-17T00:04:20;100789.94;;;2.38;78.67
50484;BME280;36409;52.168;20.878;2023-02-17T00:06:49;100791.75;;;2.40;78.76
50484;BME280;36409;52.168;20.878;2023-02-17T00:09:18;100783.22;;;2.43;77.59
50484;BME280;36409;52.168;20.878;2023-02-17T00:11:48;100784.08;;;2.43;77.89
50484;BME280;36409;52.168;20.878;2023-02-17T00:14:18;100780.67;;;2.44;78.65
50484;BME280;36409;52.168;20.878;2023-02-17T00:16:49;100787.63;;;2.47;78.75
50484;BME280;36409;52.168;20.878;2023-02-17T00:19:18;100779.01;;;2.46;77.71
50484;BME280;36409;52.168;20.878;2023-02-17T00:21:56;100768.70;;;2.46;78.14
50484;BME280;36409;52.168;20.878;2023-02-17T00:24:28;100772.17;;;2.47;78.37
50484;BME280;36409;52.168;20.878;2023-02-17T00:27:00;100773.86;;;2.46;78.35
50484;BME280;36409;52.168;20.878;2023-02-17T00:29:30;100775.60;;;2.47;78.56
50484;BME280;36409;52.168;20.878;2023-02-17T00:32:02;100771.30;;;2.48;78.29
50484;BME280;36409;52.168;20.878;2023-02-17T00:34:32;100769.59;;;2.47;78.53
50484;BME280;36409;52.168;20.878;2023-02-17T00:37:01;100770.45;;;2.47;77.53
50484;BME280;36409;52.168;20.878;2023-02-17T00:39:30;100766.16;;;2.48;78.70
50484;BME280;36409;52.168;20.878;2023-02-17T00:42:01;100764.49;;;2.50;78.60
50484;BME280;36409;52.168;20.878;2023-02-17T00:44:30;100762.80;;;2.51;78.24
50484;BME280;36409;52.168;20.878;2023-02-17T00:46:59;100761.09;;;2.51;77.98
50484;BME280;36409;52.168;20.878;2023-02-17T00:49:31;100755.93;;;2.51;78.62
50484;BME280;36409;52.168;20.878;2023-02-17T00:52:00;100756.82;;;2.52;78.53
50484;BME280;36409;52.168;20.878;2023-02-17T00:54:29;100752.52;;;2.52;78.41
50484;BME280;36409;52.168;20.878;2023-02-17T00:56:59;100754.27;;;2.53;78.62
50484;BME280;36409;52.168;20.878;2023-02-17T00:59:28;100746.53;;;2.53;78.37
50484;BME280;36409;52.168;20.878;2023-02-17T01:01:57;100748.28;;;2.54;78.73
50484;BME280;36409;52.168;20.878;2023-02-17T01:04:26;100747.45;;;2.55;78.29
50484;BME280;36409;52.168;20.878;2023-02-17T01:06:56;100741.41;;;2.55;78.42
50484;BME280;36409;52.168;20.878;2023-02-17T01:09:25;100746.65;;;2.58;77.80
50484;BME280;36409;52.168;20.878;2023-02-17T01:11:56;100739.80;;;2.58;78.35
50484;BME280;36409;52.168;20.878;2023-02-17T01:14:25;100732.09;;;2.60;78.56
50484;BME280;36409;52.168;20.878;2023-02-17T01:16:56;100733.84;;;2.61;77.85
50484;BME280;36409;52.168;20.878;2023-02-17T01:19:25;100738.17;;;2.62;78.11
50484;BME280;36409;52.168;20.878;2023-02-17T01:21:54;100733.87;;;2.62;78.74
50484;BME280;36409;52.168;20.878;2023-02-17T01:24:24;100724.45;;;2.63;78.52
50484;BME280;36409;52.168;20.878;2023-02-17T01:26:53;100716.73;;;2.65;78.13
50484;BME280;36409;52.168;20.878;2023-02-17T01:29:22;100718.48;;;2.66;78.76
50484;BME280;36409;52.168;20.878;2023-02-17T01:31:52;100711.61;;;2.66;78.69
50484;BME280;36409;52.168;20.878;2023-02-17T01:34:22;100709.03;;;2.66;78.78
50484;BME280;36409;52.168;20.878;2023-02-17T01:36:51;100710.78;;;2.67;78.61
50484;BME280;36409;52.168;20.878;2023-02-17T01:39:20;100709.92;;;2.67;78.66
50484;BME280;36409;52.168;20.878;2023-02-17T01:41:49;100701.36;;;2.68;78.44
50484;BME280;36409;52.168;20.878;2023-02-17T01:44:22;100697.03;;;2.67;77.74
50484;BME280;36409;52.168;20.878;2023-02-17T01:46:55;100705.63;;;2.67;78.35
50484;BME280;36409;52.168;20.878;2023-02-17T01:49:31;100701.30;;;2.66;78.58
50484;BME280;36409;52.168;20.878;2023-02-17T01:52:06;100709.92;;;2.67;77.88
50484;BME280;36409;52.168;20.878;2023-02-17T01:54:42;100707.34;;;2.67;78.16
50484;BME280;36409;52.168;20.878;2023-02-17T01:57:22;100702.19;;;2.67;78.40
50484;BME280;36409;52.168;20.878;2023-02-17T01:59:55;100696.14;;;2.66;78.70
50484;BME280;36409;52.168;20.878;2023-02-17T02:02:25;100703.93;;;2.68;78.71
50484;BME280;36409;52.168;20.878;2023-02-17T02:04:57;100693.63;;;2.68;78.47
50484;BME280;36409;52.168;20.878;2023-02-17T02:07:32;100689.38;;;2.70;78.58
50484;BME280;36409;52.168;20.878;2023-02-17T02:10:03;100686.82;;;2.71;77.96
50484;BME280;36409;52.168;20.878;2023-02-17T02:12:38;100684.27;;;2.73;78.01
50484;BME280;36409;52.168;20.878;2023-02-17T02:15:10;100685.18;;;2.75;78.21
50484;BME280;36409;52.168;20.878;2023-02-17T02:17:48;100686.92;;;2.76;78.62
50484;BME280;36409;52.168;20.878;2023-02-17T02:20:40;100681.80;;;2.77;78.43
50484;BME280;36409;52.168;20.878;2023-02-17T02:23:33;100678.38;;;2.78;78.75
50484;BME280;36409;52.168;20.878;2023-02-17T02:26:37;100680.20;;;2.83;78.36
50484;BME280;36409;52.168;20.878;2023-02-17T02:29:44;100677.70;;;2.86;78.23
50484;BME280;36409;52.168;20.878;2023-02-17T02:32:48;100679.49;;;2.90;78.79
50484;BME280;36409;52.168;20.878;2023-02-17T02:35:28;100682.17;;;2.94;78.15
50484;BME280;36409;52.168;20.878;2023-02-17T02:38:01;100677.98;;;2.98;78.78
50484;BME280;36409;52.168;20.878;2023-02-17T02:40:39;100670.34;;;3.03;78.76
50484;BME280;36409;52.168;20.878;2023-02-17T02:43:10;100669.52;;;3.05;78.50
50484;BME280;36409;52.168;20.878;2023-02-17T02:45:40;100670.45;;;3.09;79.01
50484;BME280;36409;52.168;20.878;2023-02-17T02:48:10;100676.54;;;3.13;78.60
50484;BME280;36409;52.168;20.878;2023-02-17T02:50:56;100666.30;;;3.16;78.44
50484;BME280;36409;52.168;20.878;2023-02-17T02:53:52;100668.04;;;3.17;78.74
50484;BME280;36409;52.168;20.878;2023-02-17T02:56:44;100666.39;;;3.20;78.31
50484;BME280;36409;52.168;20.878;2023-02-17T02:59:27;100659.58;;;3.24;78.76
50484;BME280;36409;52.168;20.878;2023-02-17T03:02:07;100651.89;;;3.26;78.36
50484;BME280;36409;52.168;20.878;2023-02-17T03:04:44;100653.65;;;3.28;78.34
50484;BME280;36409;52.168;20.878;2023-02-17T03:07:25;100658.00;;;3.31;78.45
50484;BME280;36409;52.168;20.878;2023-02-17T03:09:58;100651.16;;;3.33;78.47
50484;BME280;36409;52.168;20.878;2023-02-17T03:12:30;100654.65;;;3.35;78.31
50484;BME280;36409;52.168;20.878;2023-02-17T03:15:10;100660.72;;;3.37;78.39
50484;BME280;36409;52.168;20.878;2023-02-17T03:17:44;100657.25;;;3.36;78.26
50484;BME280;36409;52.168;20.878;2023-02-17T03:20:14;100658.14;;;3.37;78.51
50484;BME280;36409;52.168;20.878;2023-02-17T03:22:47;100659.84;;;3.38;78.07
50484;BME280;36409;52.168;20.878;2023-02-17T03:25:19;100663.31;;;3.38;78.90
50484;BME280;36409;52.168;20.878;2023-02-17T03:27:50;100659.84;;;3.38;78.55
50484;BME280;36409;52.168;20.878;2023-02-17T03:30:20;100664.17;;;3.39;78.95
50484;BME280;36409;52.168;20.878;2023-02-17T03:32:49;100656.42;;;3.39;78.23
50484;BME280;36409;52.168;20.878;2023-02-17T03:35:19;100663.33;;;3.40;78.33
50484;BME280;36409;52.168;20.878;2023-02-17T03:37:53;100662.48;;;3.39;78.13
50484;BME280;36409;52.168;20.878;2023-02-17T03:40:25;100658.17;;;3.40;78.40
50484;BME280;36409;52.168;20.878;2023-02-17T03:42:56;100661.66;;;3.42;78.79
50484;BME280;36409;52.168;20.878;2023-02-17T03:45:26;100668.56;;;3.43;78.78
50484;BME280;36409;52.168;20.878;2023-02-17T03:48:01;100672.88;;;3.43;78.62
50484;BME280;36409;52.168;20.878;2023-02-17T03:50:31;100666.82;;;3.42;78.33
50484;BME280;36409;52.168;20.878;2023-02-17T03:53:04;100665.15;;;3.44;78.23
50484;BME280;36409;52.168;20.878;2023-02-17T03:55:33;100658.27;;;3.45;78.22
50484;BME280;36409;52.168;20.878;2023-02-17T03:58:06;100657.41;;;3.44;78.31
50484;BME280;36409;52.168;20.878;2023-02-17T04:00:39;100657.41;;;3.44;78.25
50484;BME280;36409;52.168;20.878;2023-02-17T04:03:09;100654.83;;;3.44;79.04
50484;BME280;36409;52.168;20.878;2023-02-17T04:05:46;100647.06;;;3.43;78.46
50484;BME280;36409;52.168;20.878;2023-02-17T04:08:23;100644.43;;;3.41;79.03
50484;BME280;36409;52.168;20.878;2023-02-17T04:10:53;100639.27;;;3.41;78.31
50484;BME280;36409;52.168;20.878;2023-02-17T04:13:28;100641.84;;;3.41;78.51
50484;BME280;36409;52.168;20.878;2023-02-17T04:15:57;100639.27;;;3.41;78.75
50484;BME280;36409;52.168;20.878;2023-02-17T04:18:29;100635.85;;;3.42;78.85
50484;BME280;36409;52.168;20.878;2023-02-17T04:21:06;100649.66;;;3.44;79.09
50484;BME280;36409;52.168;20.878;2023-02-17T04:23:39;100650.52;;;3.45;79.03
50484;BME280;36409;52.168;20.878;2023-02-17T04:26:09;100645.34;;;3.43;78.49
50484;BME280;36409;52.168;20.878;2023-02-17T04:28:40;100653.94;;;3.44;78.73
50484;BME280;36409;52.168;20.878;2023-02-17T04:31:10;100649.64;;;3.43;78.68
50484;BME280;36409;52.168;20.878;2023-02-17T04:33:40;100645.32;;;3.42;79.13
50484;BME280;36409;52.168;20.878;2023-02-17T04:36:10;100639.27;;;3.41;79.29
50484;BME280;36409;52.168;20.878;2023-02-17T04:38:41;100625.53;;;3.42;78.61
50484;BME280;36409;52.168;20.878;2023-02-17T04:41:10;100600.56;;;3.41;78.63
50484;BME280;36409;52.168;20.878;2023-02-17T04:43:42;100607.45;;;3.40;79.43
50484;BME280;36409;52.168;20.878;2023-02-17T04:49:08;100620.36;;;3.42;78.91
50484;BME280;36409;52.168;20.878;2023-02-17T04:51:38;100624.69;;;3.43;79.01
50484;BME280;36409;52.168;20.878;2023-02-17T04:54:07;100621.25;;;3.43;79.21
50484;BME280;36409;52.168;20.878;2023-02-17T04:56:44;100614.35;;;3.42;79.41
50484;BME280;36409;52.168;20.878;2023-02-17T04:59:13;100610.06;;;3.44;79.19
50484;BME280;36409;52.168;20.878;2023-02-17T05:01:47;100594.56;;;3.42;79.53
50484;BME280;36409;52.168;20.878;2023-02-17T05:04:18;100610.05;;;3.42;79.59
50484;BME280;36409;52.168;20.878;2023-02-17T05:06:49;100600.56;;;3.41;79.10
50484;BME280;36409;52.168;20.878;2023-02-17T05:09:19;100600.56;;;3.41;79.09
50484;BME280;36409;52.168;20.878;2023-02-17T05:11:58;100588.49;;;3.40;79.53
50484;BME280;36409;52.168;20.878;2023-02-17T05:14:28;100597.98;;;3.41;79.15
50484;BME280;36409;52.168;20.878;2023-02-17T05:16:58;100596.23;;;3.40;79.67
50484;BME280;36409;52.168;20.878;2023-02-17T05:19:29;100596.23;;;3.40;79.30
50484;BME280;36409;52.168;20.878;2023-02-17T05:21:58;100598.81;;;3.40;79.49
50484;BME280;36409;52.168;20.878;2023-02-17T05:24:28;100590.22;;;3.39;79.36
50484;BME280;36409;52.168;20.878;2023-02-17T05:26:57;100585.91;;;3.40;79.64
50484;BME280;36409;52.168;20.878;2023-02-17T05:29:26;100587.66;;;3.41;79.60
50484;BME280;36409;52.168;20.878;2023-02-17T05:31:56;100582.48;;;3.39;79.73
50484;BME280;36409;52.168;20.878;2023-02-17T05:34:25;100574.73;;;3.39;79.78
50484;BME280;36409;52.168;20.878;2023-02-17T05:36:58;100574.75;;;3.41;79.49
50484;BME280;36409;52.168;20.878;2023-02-17T05:39:27;100574.75;;;3.41;80.18
50484;BME280;36409;52.168;20.878;2023-02-17T05:41:57;100576.48;;;3.40;79.96
50484;BME280;36409;52.168;20.878;2023-02-17T05:44:28;100584.23;;;3.42;79.56
50484;BME280;36409;52.168;20.878;2023-02-17T05:46:57;100582.49;;;3.41;79.57
50484;BME280;36409;52.168;20.878;2023-02-17T05:49:26;100582.55;;;3.43;79.57
50484;BME280;36409;52.168;20.878;2023-02-17T05:51:58;100581.66;;;3.42;79.77
50484;BME280;36409;52.168;20.878;2023-02-17T05:54:27;100580.81;;;3.43;79.72
50484;BME280;36409;52.168;20.878;2023-02-17T05:56:57;100575.64;;;3.42;80.32
50484;BME280;36409;52.168;20.878;2023-02-17T05:59:27;100569.59;;;3.41;80.08
50484;BME280;36409;52.168;20.878;2023-02-17T06:01:56;100579.08;;;3.42;80.13
50484;BME280;36409;52.168;20.878;2023-02-17T06:04:25;100577.38;;;3.43;80.40
50484;BME280;36409;52.168;20.878;2023-02-17T06:06:54;100577.40;;;3.44;79.60
50484;BME280;36409;52.168;20.878;2023-02-17T06:09:24;100575.67;;;3.45;79.76
50484;BME280;36409;52.168;20.878;2023-02-17T06:11:58;100568.81;;;3.45;80.31
50484;BME280;36409;52.168;20.878;2023-02-17T06:14:28;100577.40;;;3.44;80.11
50484;BME280;36409;52.168;20.878;2023-02-17T06:16:57;100575.67;;;3.45;80.01
50484;BME280;36409;52.168;20.878;2023-02-17T06:19:29;100567.05;;;3.43;79.63
50484;BME280;36409;52.168;20.878;2023-02-17T06:21:58;100580.81;;;3.43;79.69
50484;BME280;36409;52.168;20.878;2023-02-17T06:24:28;100570.48;;;3.42;80.47
50484;BME280;36409;52.168;20.878;2023-02-17T06:27:00;100574.80;;;3.43;80.00
50484;BME280;36409;52.168;20.878;2023-02-17T06:29:30;100578.22;;;3.42;80.07
50484;BME280;36409;52.168;20.878;2023-02-17T06:31:59;100571.34;;;3.44;80.29
50484;BME280;36409;52.168;20.878;2023-02-17T06:34:28;100567.89;;;3.42;80.27
50484;BME280;36409;52.168;20.878;2023-02-17T06:37:00;100564.49;;;3.44;80.21
50484;BME280;36409;52.168;20.878;2023-02-17T06:39:38;100561.91;;;3.44;79.78
50484;BME280;36409;52.168;20.878;2023-02-17T06:42:11;100560.19;;;3.45;80.56
50484;BME280;36409;52.168;20.878;2023-02-17T06:44:40;100564.51;;;3.46;80.41
50484;BME280;36409;52.168;20.878;2023-02-17T06:47:10;100561.98;;;3.47;80.22
50484;BME280;36409;52.168;20.878;2023-02-17T06:49:39;100562.84;;;3.49;79.87
50484;BME280;36409;52.168;20.878;2023-02-17T06:52:09;100550.83;;;3.50;80.06
50484;BME280;36409;52.168;20.878;2023-02-17T06:54:39;100551.73;;;3.52;79.99
50484;BME280;36409;52.168;20.878;2023-02-17T06:57:10;100545.68;;;3.51;79.78
50484;BME280;36409;52.168;20.878;2023-02-17T06:59:39;100547.48;;;3.55;80.25
50484;BME280;36409;52.168;20.878;2023-02-17T07:02:10;100552.71;;;3.59;80.04
50484;BME280;36409;52.168;20.878;2023-02-17T07:04:40;100548.48;;;3.64;80.61
50484;BME280;36409;52.168;20.878;2023-02-17T07:07:10;100546.86;;;3.69;80.24
50484;BME280;36409;52.168;20.878;2023-02-17T07:09:41;100545.19;;;3.73;80.22
50484;BME280;36409;52.168;20.878;2023-02-17T07:12:11;100537.52;;;3.77;80.64
50484;BME280;36409;52.168;20.878;2023-02-17T07:14:40;100540.19;;;3.83;80.05
50484;BME280;36409;52.168;20.878;2023-02-17T07:17:09;100540.30;;;3.90;80.37
50484;BME280;36409;52.168;20.878;2023-02-17T07:19:38;100541.28;;;3.98;80.23
50484;BME280;36409;52.168;20.878;2023-02-17T07:22:10;100532.80;;;4.05;80.22
50484;BME280;36409;52.168;20.878;2023-02-17T07:24:42;100535.46;;;4.11;80.02
50484;BME280;36409;52.168;20.878;2023-02-17T07:27:11;100545.86;;;4.16;80.27
50484;BME280;36409;52.168;20.878;2023-02-17T07:29:41;100541.61;;;4.20;80.28
50484;BME280;36409;52.168;20.878;2023-02-17T07:32:09;100542.56;;;4.26;80.16
50484;BME280;36409;52.168;20.878;2023-02-17T07:34:41;100534.03;;;4.32;80.03
50484;BME280;36409;52.168;20.878;2023-02-17T07:37:11;100534.13;;;4.38;80.42
50484;BME280;36409;52.168;20.878;2023-02-17T07:39:40;100530.72;;;4.42;79.91
50484;BME280;36409;52.168;20.878;2023-02-17T07:42:09;100537.64;;;4.45;80.22
50484;BME280;36409;52.168;20.878;2023-02-17T07:44:39;100525.61;;;4.47;80.31
50484;BME280;36409;52.168;20.878;2023-02-17T07:47:11;100525.66;;;4.48;80.13
50484;BME280;36409;52.168;20.878;2023-02-17T07:49:40;100533.47;;;4.53;79.67
50484;BME280;36409;52.168;20.878;2023-02-17T07:52:09;100532.63;;;4.56;80.24
50484;BME280;36409;52.168;20.878;2023-02-17T07:54:38;100530.10;;;4.60;80.19
50484;BME280;36409;52.168;20.878;2023-02-17T07:57:07;100535.33;;;4.65;80.30
50484;BME280;36409;52.168;20.878;2023-02-17T07:59:36;100527.63;;;4.68;80.04
50484;BME280;36409;52.168;20.878;2023-02-17T08:02:05;100525.98;;;4.76;79.72
50484;BME280;36409;52.168;20.878;2023-02-17T08:04:34;100521.77;;;4.85;80.21
50484;BME280;36409;52.168;20.878;2023-02-17T08:07:03;100527.03;;;4.91;79.97
50484;BME280;36409;52.168;20.878;2023-02-17T08:09:34;100521.05;;;4.97;79.72
50484;BME280;36409;52.168;20.878;2023-02-17T08:12:22;100521.11;;;5.03;79.93
50484;BME280;36409;52.168;20.878;2023-02-17T08:15:14;100518.57;;;5.07;79.97
50484;BME280;36409;52.168;20.878;2023-02-17T08:17:43;100518.61;;;5.10;79.76
50484;BME280;36409;52.168;20.878;2023-02-17T08:20:12;100514.33;;;5.13;79.68
50484;BME280;36409;52.168;20.878;2023-02-17T08:22:43;100515.22;;;5.15;79.94
50484;BME280;36409;52.168;20.878;2023-02-17T08:25:12;100510.89;;;5.15;79.74
50484;BME280;36409;52.168;20.878;2023-02-17T08:27:41;100516.11;;;5.18;79.58
50484;BME280;36409;52.168;20.878;2023-02-17T08:30:12;100517.89;;;5.25;79.87
50484;BME280;36409;52.168;20.878;2023-02-17T08:32:43;100511.06;;;5.31;80.07
50484;BME280;36409;52.168;20.878;2023-02-17T08:35:12;100507.66;;;5.36;79.74
50484;BME280;36409;52.168;20.878;2023-02-17T08:37:41;100499.05;;;5.40;79.80
50484;BME280;36409;52.168;20.878;2023-02-17T08:40:11;100499.13;;;5.47;79.72
50484;BME280;36409;52.168;20.878;2023-02-17T08:42:40;100492.24;;;5.52;79.46
50484;BME280;36409;52.168;20.878;2023-02-17T08:45:13;100497.49;;;5.58;79.69
50484;BME280;36409;52.168;20.878;2023-02-17T08:47:45;100504.45;;;5.65;79.64
50484;BME280;36409;52.168;20.878;2023-02-17T08:50:18;100500.19;;;5.70;79.59
50484;BME280;36409;52.168;20.878;2023-02-17T08:52:47;100495.89;;;5.76;79.49
50484;BME280;36409;52.168;20.878;2023-02-17T08:55:17;100494.22;;;5.81;79.65
50484;BME280;36409;52.168;20.878;2023-02-17T08:57:47;100492.51;;;5.86;79.64
50484;BME280;36409;52.168;20.878;2023-02-17T09:00:21;100495.95;;;5.83;79.30
50484;BME280;36409;52.168;20.878;2023-02-17T09:02:53;100491.63;;;5.79;79.92
50484;BME280;36409;52.168;20.878;2023-02-17T09:05:22;100490.71;;;5.76;79.33
50484;BME280;36409;52.168;20.878;2023-02-17T09:07:55;100495.00;;;5.72;79.22
50484;BME280;36409;52.168;20.878;2023-02-17T09:10:25;100487.20;;;5.69;79.02
50484;BME280;36409;52.168;20.878;2023-02-17T09:12:54;100490.68;;;5.68;79.42
50484;BME280;36409;52.168;20.878;2023-02-17T09:15:24;100485.50;;;5.68;79.21
50484;BME280;36409;52.168;20.878;2023-02-17T09:17:53;100489.80;;;5.69;79.18
50484;BME280;36409;52.168;20.878;2023-02-17T09:20:22;100492.38;;;5.67;79.39
50484;BME280;36409;52.168;20.878;2023-02-17T09:22:54;100498.41;;;5.65;79.42
50484;BME280;36409;52.168;20.878;2023-02-17T09:25:23;100489.76;;;5.64;78.89
50484;BME280;36409;52.168;20.878;2023-02-17T09:27:55;100480.25;;;5.63;79.02
50484;BME280;36409;52.168;20.878;2023-02-17T09:30:27;100476.81;;;5.64;79.29
50484;BME280;36409;52.168;20.878;2023-02-17T09:32:58;100475.99;;;5.67;79.30
50484;BME280;36409;52.168;20.878;2023-02-17T09:35:27;100468.25;;;5.71;79.18
50484;BME280;36409;52.168;20.878;2023-02-17T09:37:56;100466.55;;;5.75;79.10
50484;BME280;36409;52.168;20.878;2023-02-17T09:40:37;100462.25;;;5.77;79.49
50484;BME280;36409;52.168;20.878;2023-02-17T09:43:13;100464.84;;;5.77;79.01
50484;BME280;36409;52.168;20.878;2023-02-17T09:45:50;100458.80;;;5.78;79.12
50484;BME280;36409;52.168;20.878;2023-02-17T09:48:23;100446.73;;;5.82;79.11
50484;BME280;36409;52.168;20.878;2023-02-17T09:50:55;100443.30;;;5.83;79.30
50484;BME280;36409;52.168;20.878;2023-02-17T09:53:29;100438.11;;;5.84;78.90
50484;BME280;36409;52.168;20.878;2023-02-17T09:56:03;100443.29;;;5.84;78.99
50484;BME280;36409;52.168;20.878;2023-02-17T09:58:40;100435.52;;;5.86;79.22
50484;BME280;36409;52.168;20.878;2023-02-17T10:01:17;100438.13;;;5.89;78.89
50484;BME280;36409;52.168;20.878;2023-02-17T10:03:56;100430.39;;;5.91;78.93
50484;BME280;36409;52.168;20.878;2023-02-17T10:06:32;100432.09;;;5.90;79.08
50484;BME280;36409;52.168;20.878;2023-02-17T10:09:06;100424.30;;;5.87;78.97
50484;BME280;36409;52.168;20.878;2023-02-17T10:11:49;100427.75;;;5.84;79.11
50484;BME280;36409;52.168;20.878;2023-02-17T10:14:28;100431.16;;;5.79;78.81
50484;BME280;36409;52.168;20.878;2023-02-17T10:17:07;100430.25;;;5.72;78.96
50484;BME280;36409;52.168;20.878;2023-02-17T10:19:42;100429.34;;;5.64;78.92
50484;BME280;36409;52.168;20.878;2023-02-17T10:22:21;100421.55;;;5.61;79.07
50484;BME280;36409;52.168;20.878;2023-02-17T10:24:51;100430.16;;;5.58;78.95
50484;BME280;36409;52.168;20.878;2023-02-17T10:27:31;100424.98;;;5.56;78.95
50484;BME280;36409;52.168;20.878;2023-02-17T10:30:29;100426.69;;;5.56;78.97
50484;BME280;36409;52.168;20.878;2023-02-17T10:33:11;100424.10;;;5.56;79.34
50484;BME280;36409;52.168;20.878;2023-02-17T10:35:51;100418.04;;;5.54;78.97
50484;BME280;36409;52.168;20.878;2023-02-17T10:38:32;100406.80;;;5.52;79.34
50484;BME280;36409;52.168;20.878;2023-02-17T10:41:08;100401.62;;;5.50;79.33
50484;BME280;36409;52.168;20.878;2023-02-17T10:43:40;100399.03;;;5.52;79.26
50484;BME280;36409;52.168;20.878;2023-02-17T10:46:13;100386.11;;;5.55;79.41
50484;BME280;36409;52.168;20.878;2023-02-17T10:48:47;100385.29;;;5.59;79.29
50484;BME280;36409;52.168;20.878;2023-02-17T10:51:21;100377.55;;;5.64;79.40
50484;BME280;36409;52.168;20.878;2023-02-17T10:53:59;100372.39;;;5.67;79.18
50484;BME280;36409;52.168;20.878;2023-02-17T10:56:40;100368.92;;;5.66;79.59
50484;BME280;36409;52.168;20.878;2023-02-17T10:59:16;100364.62;;;5.67;79.50
50484;BME280;36409;52.168;20.878;2023-02-17T11:01:47;100355.13;;;5.66;79.63
50484;BME280;36409;52.168;20.878;2023-02-17T11:04:18;100356.00;;;5.68;79.30
50484;BME280;36409;52.168;20.878;2023-02-17T11:06:52;100347.34;;;5.67;79.57
50484;BME280;36409;52.168;20.878;2023-02-17T11:09:24;100340.47;;;5.68;79.88
50484;BME280;36409;52.168;20.878;2023-02-17T11:12:00;100336.13;;;5.68;79.62
50484;BME280;36409;52.168;20.878;2023-02-17T11:14:32;100329.22;;;5.69;79.61
50484;BME280;36409;52.168;20.878;2023-02-17T11:17:14;100321.48;;;5.70;79.50
50484;BME280;36409;52.168;20.878;2023-02-17T11:19:56;100319.77;;;5.72;79.76
50484;BME280;36409;52.168;20.878;2023-02-17T11:22:34;100311.13;;;5.77;79.83
50484;BME280;36409;52.168;20.878;2023-02-17T11:25:18;100304.23;;;5.79;79.81
50484;BME280;36409;52.168;20.878;2023-02-17T11:27:53;100297.34;;;5.81;79.59
50484;BME280;36409;52.168;20.878;2023-02-17T11:30:25;100291.33;;;5.86;79.63
50484;BME280;36409;52.168;20.878;2023-02-17T11:32:56;100285.28;;;5.89;79.48
50484;BME280;36409;52.168;20.878;2023-02-17T11:35:28;100275.78;;;5.93;79.87
50484;BME280;36409;52.168;20.878;2023-02-17T11:38:12;100261.11;;;5.95;79.86
50484;BME280;36409;52.168;20.878;2023-02-17T11:40:52;100257.66;;;5.97;79.36
50484;BME280;36409;52.168;20.878;2023-02-17T11:43:28;100256.00;;;6.02;79.90
50484;BME280;36409;52.168;20.878;2023-02-17T11:46:07;100257.74;;;6.07;79.70
50484;BME280;36409;52.168;20.878;2023-02-17T11:51:47;100248.23;;;6.12;79.85
50484;BME280;36409;52.168;20.878;2023-02-17T11:54:25;100242.20;;;6.13;79.75
50484;BME280;36409;52.168;20.878;2023-02-17T11:57:10;100236.16;;;6.12;79.89
50484;BME280;36409;52.168;20.878;2023-02-17T12:00:00;100231.83;;;6.13;79.69
50484;BME280;36409;52.168;20.878;2023-02-17T12:06:05;100214.55;;;6.12;80.08
50484;BME280;36409;52.168;20.878;2023-02-17T12:11:43;100210.25;;;6.12;80.09
50484;BME280;36409;52.168;20.878;2023-02-17T12:14:33;100196.43;;;6.13;80.25
50484;BME280;36409;52.168;20.878;2023-02-17T12:17:13;100180.87;;;6.15;80.18
50484;BME280;36409;52.168;20.878;2023-02-17T12:19:53;100175.69;;;6.15;79.98
50484;BME280;36409;52.168;20.878;2023-02-17T12:22:27;100168.77;;;6.14;80.20
50484;BME280;36409;52.168;20.878;2023-02-17T12:25:16;100156.67;;;6.13;79.88
50484;BME280;36409;52.168;20.878;2023-02-17T12:27:59;100141.98;;;6.12;80.13
50484;BME280;36409;52.168;20.878;2023-02-17T12:30:45;100140.27;;;6.14;80.33
50484;BME280;36409;52.168;20.878;2023-02-17T12:33:32;100129.03;;;6.15;80.11
50484;BME280;36409;52.168;20.878;2023-02-17T12:36:05;100129.05;;;6.18;80.25
50484;BME280;36409;52.168;20.878;2023-02-17T12:38:41;100119.52;;;6.20;80.21
50484;BME280;36409;52.168;20.878;2023-02-17T12:41:17;100115.20;;;6.22;80.30
50484;BME280;36409;52.168;20.878;2023-02-17T12:43:50;100109.16;;;6.22;80.29
50484;BME280;36409;52.168;20.878;2023-02-17T12:46:24;100114.34;;;6.23;80.29
50484;BME280;36409;52.168;20.878;2023-02-17T12:48:58;100117.79;;;6.22;80.17
50484;BME280;36409;52.168;20.878;2023-02-17T12:51:33;100113.48;;;6.23;80.41
50484;BME280;36409;52.168;20.878;2023-02-17T12:54:16;100103.12;;;6.23;80.50
50484;BME280;36409;52.168;20.878;2023-02-17T12:56:57;100104.85;;;6.24;80.16
50484;BME280;36409;52.168;20.878;2023-02-17T12:59:32;100101.37;;;6.23;80.51
50484;BME280;36409;52.168;20.878;2023-02-17T13:02:05;100091.03;;;6.25;80.38
50484;BME280;36409;52.168;20.878;2023-02-17T13:04:38;100094.45;;;6.27;80.41
50484;BME280;36409;52.168;20.878;2023-02-17T13:07:42;100078.05;;;6.26;80.43
50484;BME280;36409;52.168;20.878;2023-02-17T13:10:27;100075.45;;;6.28;80.35
50484;BME280;36409;52.168;20.878;2023-02-17T13:12:59;100078.06;;;6.29;80.42
50484;BME280;36409;52.168;20.878;2023-02-17T13:15:35;100077.19;;;6.32;80.22
50484;BME280;36409;52.168;20.878;2023-02-17T13:18:10;100072.84;;;6.32;80.52
50484;BME280;36409;52.168;20.878;2023-02-17T13:20:52;100064.21;;;6.33;80.27
50484;BME280;36409;52.168;20.878;2023-02-17T13:23:35;100055.57;;;6.34;80.76
50484;BME280;36409;52.168;20.878;2023-02-17T13:26:13;100041.74;;;6.36;80.41
50484;BME280;36409;52.168;20.878;2023-02-17T13:28:46;100044.34;;;6.36;80.55
50484;BME280;36409;52.168;20.878;2023-02-17T13:31:21;100044.34;;;6.36;80.61
50484;BME280;36409;52.168;20.878;2023-02-17T13:33:53;100040.02;;;6.34;80.50
50484;BME280;36409;52.168;20.878;2023-02-17T13:36:34;100044.35;;;6.34;80.73